SKRG

Jose Maria Córdova International Airport

Rionegro, Colombia
TAF SKRG 162300Z 1700/1724 11010KT 9999 FEW020 BKN200 BECMG 1701/1703 VRB02KT TEMPO 1703/1706 8000 VCSH BKN015TCU TEMPO 1709/1713 5000 BR DZ BKN010 TEMPO 1719/1723 09007KT SCT017CB TX22/1719Z TN12/1711Z
Issued Valid From Valid To
Jan-16 @ 23:00 UTC
(6 hours ago)
Jan-17 @ 00:00 UTC
(5 hours ago)
Jan-18 @ 00:00 UTC
(in 19 hours)
Expired Click to View Jan-17 @ 00:00 to Jan-17 @ 01:00
TAF SKRG 162300Z 1700/1724 11010KT 9999 FEW020 BKN200
Wind Visibility Clouds
110° at 10 knots 10,000+ meters
  • Few at 2,000' AGL
  • Broken at 20,000' AGL
Becoming Jan-17 @ 01:00 to Jan-18 @ 00:00
BECMG 1701/1703 VRB02KT
Wind Visibility Clouds
Variable at 2 knots 10,000+ meters
  • Few at 2,000' AGL
  • Broken at 20,000' AGL
Temporary Jan-17 @ 03:00 to Jan-17 @ 06:00
TEMPO 1703/1706 8000 VCSH BKN015TCU
Visibility Clouds
7,998 meters
  • Broken at 1,500' AGL
Temporary Jan-17 @ 09:00 to Jan-17 @ 13:00
TEMPO 1709/1713 5000 BR DZ BKN010
Visibility Clouds Conditions
5,005 meters
  • Broken at 1,000' AGL
  • Mist
  • Drizzle
Temporary Jan-17 @ 19:00 to Jan-17 @ 23:00
TEMPO 1719/1723 09007KT SCT017CB TX22/1719Z TN12/1711Z
Wind Clouds
90° at 7 knots
  • Scattered at 1,700' AGL
TAF SKRG 162300Z 1700/1724 11010KT 9999 FEW020 BKN200 BECMG 1701/1703 VRB02KT TEMPO 1703/1706 8000 VCSH BKN015TCU TEMPO 1709/1713 5000 BR DZ BKN010 TEMPO 1719/1723 09007KT SCT017CB TX22/1719Z TN12/1711Z
Issued Jan-16 @ 23:00 UTC
(6 hours ago)
Valid From Jan-17 @ 00:00 UTC
(5 hours ago)
Valid To Jan-18 @ 00:00 UTC
(in 19 hours)
Jan-17 @ 00:00 - Jan-17 @ 01:00
Wind Visibility
110° at 10 knots 10,000+ meters
Clouds
  • Few at 2,000' AGL
  • Broken at 20,000' AGL
Becoming Jan-17 @ 01:00 - Jan-18 @ 00:00
Wind Visibility
Variable at 2 knots 10,000+ meters
Clouds
  • Few at 2,000' AGL
  • Broken at 20,000' AGL
Temporary Jan-17 @ 03:00 - Jan-17 @ 06:00
Clouds
  • Broken at 1,500' AGL
Temporary Jan-17 @ 09:00 - Jan-17 @ 13:00
Clouds
  • Broken at 1,000' AGL
Conditions
  • Mist
  • Drizzle
Temporary Jan-17 @ 19:00 - Jan-17 @ 23:00
Wind
90° at 7 knots
Clouds
  • Scattered at 1,700' AGL